createdAt,value
2023-03-22T00:00:35.411Z,65.18
2023-03-22T00:03:06.304Z,65.07
2023-03-22T00:05:34.895Z,65.17
2023-03-22T00:08:05.700Z,65.31
2023-03-22T00:10:35.765Z,65.59
2023-03-22T00:13:04.766Z,65.44
2023-03-22T00:15:34.017Z,65.66
2023-03-22T00:18:05.759Z,65.58
2023-03-22T00:20:37.569Z,66.10
2023-03-22T00:23:06.551Z,66.67
2023-03-22T00:25:35.492Z,66.89
2023-03-22T00:28:04.238Z,67.47
2023-03-22T00:30:32.939Z,67.72
2023-03-22T00:33:01.895Z,68.08
2023-03-22T00:35:32.098Z,68.19
2023-03-22T00:38:06.194Z,68.56
2023-03-22T00:40:35.388Z,68.81
2023-03-22T00:43:03.968Z,68.92
2023-03-22T00:45:32.921Z,69.19
2023-03-22T00:48:01.782Z,69.36
2023-03-22T00:50:32.127Z,69.71
2023-03-22T00:53:00.965Z,70.60
2023-03-22T00:55:30.015Z,70.54
2023-03-22T00:57:58.995Z,70.72
2023-03-22T01:00:28.007Z,70.56
2023-03-22T01:02:59.684Z,70.55
2023-03-22T01:05:28.528Z,70.30
2023-03-22T01:08:02.557Z,70.33
2023-03-22T01:10:31.650Z,70.52
2023-03-22T01:13:00.276Z,70.78
2023-03-22T01:15:28.984Z,70.96
2023-03-22T01:17:57.976Z,70.88
2023-03-22T01:20:26.925Z,71.38
2023-03-22T01:22:56.972Z,71.43
2023-03-22T01:25:26.548Z,71.96
2023-03-22T01:27:55.422Z,71.84
2023-03-22T01:30:24.026Z,71.95
2023-03-22T01:32:52.846Z,72.20
2023-03-22T01:35:21.465Z,72.00
2023-03-22T01:37:53.061Z,71.96
2023-03-22T01:40:23.916Z,72.13
2023-03-22T01:42:54.523Z,71.75
2023-03-22T01:45:43.129Z,72.10
2023-03-22T01:48:26.589Z,71.79
2023-03-22T01:51:04.180Z,71.84
2023-03-22T01:53:42.126Z,71.80
2023-03-22T01:56:13.634Z,71.97
2023-03-22T01:58:43.388Z,72.24
2023-03-22T02:01:13.914Z,72.46
2023-03-22T02:03:56.600Z,72.88
2023-03-22T02:06:26.175Z,72.75
2023-03-22T02:09:02.332Z,72.77
2023-03-22T02:11:35.577Z,73.04
2023-03-22T02:14:27.440Z,73.18
2023-03-22T02:17:43.091Z,73.90
2023-03-22T02:20:47.053Z,74.09
2023-03-22T02:23:44.829Z,74.28
2023-03-22T02:26:54.608Z,74.07
2023-03-22T02:29:30.074Z,74.57
2023-03-22T02:32:23.881Z,74.38
2023-03-22T02:35:38.637Z,74.57
2023-03-22T02:38:42.488Z,74.82
2023-03-22T02:41:16.308Z,74.94
2023-03-22T02:43:54.498Z,75.19
2023-03-22T02:46:26.804Z,75.40
2023-03-22T02:49:01.418Z,75.69
2023-03-22T02:51:35.680Z,75.91
2023-03-22T02:54:08.138Z,76.14
2023-03-22T02:56:41.080Z,76.50
2023-03-22T02:59:12.641Z,76.39
2023-03-22T03:01:43.454Z,76.74
2023-03-22T03:04:15.846Z,77.29
2023-03-22T03:06:47.034Z,77.53
2023-03-22T03:09:18.127Z,77.51
2023-03-22T03:11:50.913Z,77.98
2023-03-22T03:14:24.381Z,77.85
2023-03-22T03:17:03.557Z,78.03
2023-03-22T03:19:36.588Z,77.81
2023-03-22T03:22:16.253Z,77.94
2023-03-22T03:24:50.796Z,78.38
2023-03-22T03:27:24.756Z,78.13
2023-03-22T03:29:58.140Z,78.48
2023-03-22T03:32:31.638Z,79.06
2023-03-22T03:35:05.406Z,79.22
2023-03-22T03:37:39.253Z,79.57
2023-03-22T03:40:11.413Z,79.97
2023-03-22T03:42:44.030Z,79.77
2023-03-22T03:45:13.090Z,79.98
2023-03-22T03:47:41.968Z,79.91
2023-03-22T03:50:13.682Z,79.98
2023-03-22T03:52:42.368Z,79.42
2023-03-22T03:55:11.271Z,79.65
2023-03-22T03:57:41.298Z,79.28
2023-03-22T04:00:11.094Z,79.48
2023-03-22T04:02:42.644Z,79.22
2023-03-22T04:05:20.706Z,79.66
2023-03-22T04:07:49.241Z,79.58
2023-03-22T04:10:18.282Z,79.61
2023-03-22T04:12:48.480Z,79.75
2023-03-22T04:15:19.840Z,79.69
2023-03-22T04:17:53.972Z,80.01
2023-03-22T04:20:27.391Z,79.41
2023-03-22T04:22:57.996Z,79.65
2023-03-22T04:25:30.430Z,79.30
2023-03-22T04:28:10.645Z,79.19
2023-03-22T04:30:39.750Z,79.11
2023-03-22T04:33:27.600Z,79.04
2023-03-22T04:36:16.012Z,78.69
2023-03-22T04:39:00.664Z,78.48
2023-03-22T04:41:33.067Z,78.75
2023-03-22T04:44:03.919Z,78.34
2023-03-22T04:46:36.747Z,78.19
2023-03-22T04:49:08.362Z,78.46
2023-03-22T04:51:41.342Z,78.38
2023-03-22T04:54:24.630Z,78.76
2023-03-22T04:56:53.498Z,78.11
2023-03-22T04:59:25.971Z,77.44
2023-03-22T05:01:55.278Z,77.33
2023-03-22T05:04:28.707Z,77.11
2023-03-22T05:07:04.452Z,76.73
2023-03-22T05:09:43.518Z,76.85
2023-03-22T05:12:12.268Z,76.63
2023-03-22T05:14:49.318Z,76.76
2023-03-22T05:17:22.794Z,76.77
2023-03-22T05:19:54.020Z,76.37
2023-03-22T05:22:23.031Z,76.52
2023-03-22T05:24:53.473Z,76.68
2023-03-22T05:27:31.205Z,76.41
2023-03-22T05:30:21.691Z,76.92
2023-03-22T05:33:03.104Z,76.95
2023-03-22T05:35:34.476Z,76.94
2023-03-22T05:38:04.870Z,77.49
2023-03-22T05:40:36.154Z,77.55
2023-03-22T05:43:04.906Z,77.69
2023-03-22T05:45:36.676Z,77.81
2023-03-22T05:48:17.975Z,77.86
2023-03-22T05:50:46.791Z,77.77
2023-03-22T05:53:15.812Z,77.80
2023-03-22T05:55:50.085Z,78.36
2023-03-22T05:58:19.279Z,78.37
2023-03-22T06:00:51.383Z,78.39
2023-03-22T06:03:22.681Z,78.09
2023-03-22T06:05:59.713Z,78.31
2023-03-22T06:08:44.899Z,78.39
2023-03-22T06:11:14.407Z,78.86
2023-03-22T06:13:43.109Z,79.09
2023-03-22T06:16:15.570Z,79.27
2023-03-22T06:18:45.244Z,79.06
2023-03-22T06:21:14.630Z,79.12
2023-03-22T06:23:44.451Z,79.62
2023-03-22T06:26:13.923Z,79.42
2023-03-22T06:28:43.984Z,79.48
2023-03-22T06:31:15.386Z,79.95
2023-03-22T06:33:49.605Z,79.41
2023-03-22T06:36:27.005Z,79.17
2023-03-22T06:39:16.160Z,79.56
2023-03-22T06:41:46.533Z,78.91
2023-03-22T06:44:16.061Z,79.38
2023-03-22T06:47:06.845Z,78.89
2023-03-22T06:49:58.672Z,78.95
2023-03-22T06:52:38.808Z,79.19
2023-03-22T06:55:10.377Z,78.69
2023-03-22T06:57:39.289Z,79.07
2023-03-22T07:00:10.637Z,78.78
2023-03-22T07:02:40.570Z,78.87
2023-03-22T07:05:22.480Z,78.53
2023-03-22T07:07:51.277Z,78.31
2023-03-22T07:10:20.434Z,77.74
2023-03-22T07:12:49.263Z,78.05
2023-03-22T07:15:24.204Z,77.12
2023-03-22T07:18:13.534Z,76.31
2023-03-22T07:20:42.721Z,75.67
2023-03-22T07:23:12.054Z,74.87
2023-03-22T07:25:51.548Z,74.43
2023-03-22T07:28:26.249Z,72.90
2023-03-22T07:31:01.907Z,72.86
2023-03-22T07:33:37.466Z,71.04
2023-03-22T07:36:06.766Z,69.98
2023-03-22T07:38:35.975Z,68.86
2023-03-22T07:41:08.064Z,69.17
2023-03-22T07:44:04.794Z,68.72
2023-03-22T07:46:51.747Z,69.03
2023-03-22T07:49:30.166Z,69.08
2023-03-22T07:52:18.015Z,70.08
2023-03-22T07:54:46.794Z,69.19
2023-03-22T07:57:16.027Z,69.52
2023-03-22T07:59:49.925Z,68.57
2023-03-22T08:02:19.077Z,69.19
2023-03-22T08:04:56.447Z,69.14
2023-03-22T08:07:33.295Z,68.66
2023-03-22T08:10:01.953Z,68.06
2023-03-22T08:12:32.471Z,66.70
2023-03-22T08:15:10.645Z,67.24
2023-03-22T08:17:39.432Z,65.26
2023-03-22T08:20:14.490Z,65.44
2023-03-22T08:22:51.505Z,65.20
2023-03-22T08:25:29.593Z,65.72
2023-03-22T08:28:07.222Z,63.39
2023-03-22T08:30:36.116Z,64.08
2023-03-22T08:33:06.390Z,61.55
2023-03-22T08:35:36.782Z,62.30
2023-03-22T08:38:05.552Z,60.71
2023-03-22T08:40:42.754Z,61.27
2023-03-22T08:43:11.563Z,61.75
2023-03-22T08:45:40.839Z,59.94
2023-03-22T08:48:14.054Z,59.98
2023-03-22T08:51:03.388Z,60.83
2023-03-22T08:53:44.917Z,60.49
2023-03-22T08:56:33.439Z,59.58
2023-03-22T08:59:15.485Z,59.78
2023-03-22T09:01:56.123Z,59.98
2023-03-22T09:04:25.076Z,58.75
2023-03-22T09:06:55.491Z,59.22
2023-03-22T09:09:24.250Z,58.72
2023-03-22T09:11:54.816Z,58.16
2023-03-22T09:14:23.725Z,58.61
2023-03-22T09:16:52.694Z,58.88
2023-03-22T09:19:22.452Z,57.79
2023-03-22T09:21:51.257Z,58.82
2023-03-22T09:24:32.720Z,57.76
2023-03-22T09:27:04.620Z,57.82
2023-03-22T09:29:33.739Z,58.25
2023-03-22T09:32:07.905Z,57.27
2023-03-22T09:34:38.968Z,56.82
2023-03-22T09:37:08.383Z,56.03
2023-03-22T09:39:47.254Z,56.94
2023-03-22T09:42:32.685Z,56.28
2023-03-22T09:45:07.462Z,55.97
2023-03-22T09:47:44.667Z,57.15
2023-03-22T09:50:17.373Z,55.63
2023-03-22T09:52:46.670Z,55.70
2023-03-22T09:55:22.317Z,55.47
2023-03-22T09:57:57.171Z,54.70
2023-03-22T10:00:27.542Z,53.95
2023-03-22T10:03:01.972Z,54.07
2023-03-22T10:05:36.236Z,53.90
2023-03-22T10:08:21.544Z,54.62
2023-03-22T10:10:52.793Z,52.69
2023-03-22T10:13:26.729Z,52.64
2023-03-22T10:15:59.008Z,51.87
2023-03-22T10:18:29.962Z,52.62
2023-03-22T10:21:02.758Z,51.53
2023-03-22T10:23:35.167Z,51.65
2023-03-22T10:26:07.919Z,51.46
2023-03-22T10:28:40.354Z,52.51
2023-03-22T10:31:14.616Z,52.42
2023-03-22T10:33:50.545Z,53.48
2023-03-22T10:36:22.401Z,53.71
2023-03-22T10:38:53.586Z,50.59
2023-03-22T10:41:26.132Z,51.85
2023-03-22T10:43:59.663Z,51.30
2023-03-22T10:46:30.151Z,51.19
2023-03-22T10:49:00.900Z,50.76
2023-03-22T10:51:32.215Z,51.34
2023-03-22T10:54:02.477Z,51.29
2023-03-22T10:56:32.504Z,51.06
2023-03-22T10:59:01.264Z,51.31
2023-03-22T11:01:31.844Z,50.71
2023-03-22T11:04:02.100Z,50.73
2023-03-22T11:06:32.899Z,50.78
2023-03-22T11:09:03.960Z,50.73
2023-03-22T11:11:38.805Z,50.40
2023-03-22T11:14:09.501Z,50.80
2023-03-22T11:16:45.403Z,49.74
2023-03-22T11:19:18.098Z,49.11
2023-03-22T11:21:47.043Z,49.58
2023-03-22T11:24:16.226Z,49.26
2023-03-22T11:27:03.818Z,47.94
2023-03-22T11:29:41.641Z,49.29
2023-03-22T11:32:27.212Z,47.72
2023-03-22T11:35:13.531Z,47.67
2023-03-22T11:37:43.288Z,47.35
2023-03-22T11:40:16.356Z,49.38
2023-03-22T11:42:46.738Z,48.08
2023-03-22T11:45:17.215Z,45.01
2023-03-22T11:47:46.023Z,44.30
2023-03-22T11:50:27.414Z,45.92
2023-03-22T11:52:56.849Z,42.57
2023-03-22T11:55:26.294Z,42.19
2023-03-22T11:57:58.265Z,44.09
2023-03-22T12:00:28.807Z,43.69
2023-03-22T12:03:00.710Z,44.44
2023-03-22T12:05:31.406Z,43.35
2023-03-22T12:08:05.010Z,42.61
2023-03-22T12:10:34.738Z,41.68
2023-03-22T12:13:08.334Z,42.15
2023-03-22T12:15:40.245Z,40.87
2023-03-22T12:18:12.353Z,41.97
2023-03-22T12:20:44.059Z,42.21
2023-03-22T12:23:16.719Z,42.61
2023-03-22T12:25:49.595Z,40.68
2023-03-22T12:28:23.215Z,41.51
2023-03-22T12:30:56.209Z,41.79
2023-03-22T12:33:28.133Z,41.73
2023-03-22T12:35:59.130Z,39.87
2023-03-22T12:38:34.046Z,39.75
2023-03-22T12:41:06.269Z,38.70
2023-03-22T12:43:47.059Z,38.77
2023-03-22T12:46:20.327Z,38.53
2023-03-22T12:48:51.948Z,38.93
2023-03-22T12:51:20.991Z,38.95
2023-03-22T12:53:52.214Z,38.54
2023-03-22T12:56:23.096Z,37.28
2023-03-22T12:58:55.057Z,36.12
2023-03-22T13:01:30.061Z,36.36
2023-03-22T13:03:59.480Z,36.95
2023-03-22T13:06:35.466Z,36.51
2023-03-22T13:09:16.897Z,35.64
2023-03-22T13:11:46.609Z,36.58
2023-03-22T13:14:56.137Z,34.33
2023-03-22T13:17:43.470Z,35.34
2023-03-22T13:20:31.250Z,33.53
2023-03-22T13:23:02.819Z,32.74
2023-03-22T13:25:35.070Z,32.80
2023-03-22T13:28:06.615Z,32.44
2023-03-22T13:30:47.679Z,33.08
2023-03-22T13:33:21.488Z,31.93
2023-03-22T13:35:53.862Z,31.47
2023-03-22T13:38:24.717Z,30.36
2023-03-22T13:41:01.757Z,30.58
2023-03-22T13:43:33.521Z,31.09
2023-03-22T13:46:29.982Z,30.35
2023-03-22T13:49:41.921Z,29.61
2023-03-22T13:52:20.878Z,29.17
2023-03-22T13:54:52.289Z,29.91
2023-03-22T13:57:47.769Z,29.94
2023-03-22T14:00:48.154Z,30.75
2023-03-22T14:03:27.326Z,28.59
2023-03-22T14:06:07.448Z,28.69
2023-03-22T14:08:36.544Z,28.17
2023-03-22T14:11:14.761Z,28.79
2023-03-22T14:13:47.183Z,27.33
2023-03-22T14:16:19.507Z,25.88
2023-03-22T14:18:51.237Z,26.51
2023-03-22T14:21:22.842Z,27.09
